createdAt,value
2023-03-27T00:00:21.550Z,5.88
2023-03-27T00:00:52.849Z,5.88
2023-03-27T00:01:24.101Z,5.88
2023-03-27T00:01:56.945Z,5.88
2023-03-27T00:02:28.272Z,5.88
2023-03-27T00:03:00.940Z,5.88
2023-03-27T00:03:32.192Z,5.88
2023-03-27T00:04:05.013Z,5.88
2023-03-27T00:04:36.015Z,5.88
2023-03-27T00:05:09.121Z,5.88
2023-03-27T00:05:40.152Z,5.88
2023-03-27T00:06:13.090Z,5.88
2023-03-27T00:06:43.973Z,5.88
2023-03-27T00:07:16.868Z,5.88
2023-03-27T00:07:48.124Z,5.88
2023-03-27T00:08:20.808Z,5.88
2023-03-27T00:08:52.046Z,5.88
2023-03-27T00:09:24.749Z,5.88
2023-03-27T00:09:56.122Z,5.88
2023-03-27T00:10:28.995Z,5.88
2023-03-27T00:11:00.105Z,5.88
2023-03-27T00:11:32.873Z,5.88
2023-03-27T00:12:03.966Z,5.88
2023-03-27T00:12:37.659Z,5.88
2023-03-27T00:13:08.219Z,5.88
2023-03-27T00:13:49.107Z,5.88
2023-03-27T00:14:12.013Z,5.88
2023-03-27T00:14:44.782Z,6.00
2023-03-27T00:15:17.015Z,6.00
2023-03-27T00:15:48.910Z,6.00
2023-03-27T00:16:20.197Z,6.00
2023-03-27T00:16:53.066Z,6.00
2023-03-27T00:17:24.093Z,6.00
2023-03-27T00:17:56.883Z,6.00
2023-03-27T00:18:28.095Z,6.00
2023-03-27T00:19:00.872Z,6.00
2023-03-27T00:19:31.993Z,6.00
2023-03-27T00:20:04.950Z,5.88
2023-03-27T00:20:36.117Z,5.88
2023-03-27T00:21:08.742Z,6.00
2023-03-27T00:21:39.973Z,6.00
2023-03-27T00:22:12.799Z,5.88
2023-03-27T00:22:44.135Z,5.88
2023-03-27T00:23:17.079Z,6.00
2023-03-27T00:23:48.088Z,6.00
2023-03-27T00:24:20.858Z,6.00
2023-03-27T00:24:51.998Z,6.00
2023-03-27T00:25:25.082Z,6.00
2023-03-27T00:25:56.119Z,6.00
2023-03-27T00:26:28.860Z,6.00
2023-03-27T00:26:59.964Z,6.00
2023-03-27T00:27:32.881Z,6.00
2023-03-27T00:28:04.140Z,6.00
2023-03-27T00:28:36.866Z,5.88
2023-03-27T00:29:08.214Z,5.88
2023-03-27T00:29:43.762Z,5.88
2023-03-27T00:30:13.091Z,5.88
2023-03-27T00:30:44.838Z,5.88
2023-03-27T00:31:16.074Z,5.88
2023-03-27T00:31:48.948Z,5.88
2023-03-27T00:32:20.052Z,5.88
2023-03-27T00:32:52.779Z,5.88
2023-03-27T00:33:24.061Z,5.88
2023-03-27T00:33:56.996Z,5.88
2023-03-27T00:34:27.981Z,5.88
2023-03-27T00:35:05.151Z,5.88
2023-03-27T00:35:32.176Z,5.88
2023-03-27T00:36:03.999Z,5.88
2023-03-27T00:36:37.086Z,5.88
2023-03-27T00:37:08.101Z,5.88
2023-03-27T00:37:43.992Z,5.88
2023-03-27T00:38:12.005Z,5.88
2023-03-27T00:38:45.066Z,5.88
2023-03-27T00:39:16.151Z,5.88
2023-03-27T00:39:48.775Z,5.88
2023-03-27T00:40:20.381Z,5.88
2023-03-27T00:40:52.902Z,5.88
2023-03-27T00:41:24.326Z,5.88
2023-03-27T00:41:56.787Z,5.88
2023-03-27T00:42:28.118Z,5.88
2023-03-27T00:43:03.049Z,5.88
2023-03-27T00:43:31.992Z,5.88
2023-03-27T00:44:04.781Z,5.88
2023-03-27T00:44:38.585Z,5.88
2023-03-27T00:45:09.844Z,5.88
2023-03-27T00:45:40.133Z,5.88
2023-03-27T00:46:13.142Z,5.88
2023-03-27T00:46:44.311Z,5.88
2023-03-27T00:47:16.906Z,5.88
2023-03-27T00:47:48.290Z,5.88
2023-03-27T00:48:20.806Z,5.88
2023-03-27T00:48:52.208Z,5.88
2023-03-27T00:49:24.798Z,5.88
2023-03-27T00:49:56.087Z,5.88
2023-03-27T00:50:29.256Z,5.88
2023-03-27T00:51:00.028Z,5.88
2023-03-27T00:51:32.713Z,5.88
2023-03-27T00:52:04.135Z,5.88
2023-03-27T00:52:36.847Z,5.88
2023-03-27T00:53:08.045Z,5.88
2023-03-27T00:53:24.169Z,5.88
2023-03-27T00:53:56.022Z,5.88
2023-03-27T00:54:28.107Z,5.88
2023-03-27T00:55:00.140Z,5.88
2023-03-27T00:55:32.374Z,5.77
2023-03-27T00:56:04.839Z,5.77
2023-03-27T00:56:36.208Z,5.77
2023-03-27T00:57:08.913Z,5.77
2023-03-27T00:57:40.043Z,5.77
2023-03-27T00:58:13.883Z,5.77
2023-03-27T00:58:44.108Z,5.77
2023-03-27T00:59:16.777Z,5.77
2023-03-27T00:59:48.047Z,5.77
2023-03-27T01:00:22.046Z,5.77
2023-03-27T01:00:51.936Z,5.77
2023-03-27T01:01:25.065Z,5.77
2023-03-27T01:01:56.183Z,5.77
2023-03-27T01:02:29.067Z,5.77
2023-03-27T01:03:00.933Z,5.72
2023-03-27T01:03:32.848Z,5.72
2023-03-27T01:04:04.209Z,5.72
2023-03-27T01:04:36.796Z,5.72
2023-03-27T01:05:08.291Z,5.72
2023-03-27T01:05:48.706Z,5.72
2023-03-27T01:06:11.949Z,5.72
2023-03-27T01:06:44.017Z,5.72
2023-03-27T01:07:18.660Z,5.72
2023-03-27T01:08:00.228Z,5.72
2023-03-27T01:08:20.772Z,5.61
2023-03-27T01:08:52.008Z,5.61
2023-03-27T01:09:24.893Z,5.61
2023-03-27T01:09:56.274Z,5.61
2023-03-27T01:10:29.088Z,5.61
2023-03-27T01:11:00.144Z,5.61
2023-03-27T01:11:32.893Z,5.61
2023-03-27T01:12:04.014Z,5.61
2023-03-27T01:12:40.437Z,5.61
2023-03-27T01:13:08.129Z,5.61
2023-03-27T01:13:40.758Z,5.61
2023-03-27T01:14:12.063Z,5.61
2023-03-27T01:14:44.861Z,5.61
2023-03-27T01:15:16.895Z,5.61
2023-03-27T01:15:49.071Z,5.50
2023-03-27T01:16:20.050Z,5.50
2023-03-27T01:16:55.870Z,5.50
2023-03-27T01:17:24.237Z,5.50
2023-03-27T01:17:56.960Z,5.50
2023-03-27T01:18:28.146Z,5.50
2023-03-27T01:19:01.682Z,5.50
2023-03-27T01:19:32.103Z,5.50
2023-03-27T01:20:05.162Z,5.50
2023-03-27T01:20:36.112Z,5.50
2023-03-27T01:21:08.816Z,5.50
2023-03-27T01:21:40.014Z,5.50
2023-03-27T01:22:13.188Z,5.50
2023-03-27T01:22:44.048Z,5.50
2023-03-27T01:23:17.191Z,5.50
2023-03-27T01:23:58.972Z,5.50
2023-03-27T01:24:20.991Z,5.50
2023-03-27T01:24:51.992Z,5.50
2023-03-27T01:25:25.197Z,5.50
2023-03-27T01:25:56.222Z,5.50
2023-03-27T01:26:35.694Z,5.38
2023-03-27T01:27:00.059Z,5.38
2023-03-27T01:27:33.096Z,5.38
2023-03-27T01:28:03.902Z,5.38
2023-03-27T01:28:36.852Z,5.38
2023-03-27T01:29:08.122Z,5.38
2023-03-27T01:29:43.734Z,5.38
2023-03-27T01:30:13.032Z,5.38
2023-03-27T01:30:45.310Z,5.38
2023-03-27T01:31:16.343Z,5.38
2023-03-27T01:31:49.124Z,5.27
2023-03-27T01:32:20.180Z,5.27
2023-03-27T01:32:53.181Z,5.27
2023-03-27T01:33:24.339Z,5.27
2023-03-27T01:33:57.892Z,5.27
2023-03-27T01:34:28.274Z,5.27
2023-03-27T01:35:03.239Z,5.27
2023-03-27T01:35:32.319Z,5.27
2023-03-27T01:36:08.011Z,5.22
2023-03-27T01:36:36.305Z,5.22
2023-03-27T01:37:09.007Z,5.22
2023-03-27T01:37:40.079Z,5.22
2023-03-27T01:38:13.081Z,5.22
2023-03-27T01:38:44.244Z,5.22
2023-03-27T01:39:16.943Z,5.22
2023-03-27T01:39:48.029Z,5.22
2023-03-27T01:40:24.250Z,5.22
2023-03-27T01:40:51.994Z,5.22
2023-03-27T01:41:24.838Z,5.11
2023-03-27T01:41:56.115Z,5.11
2023-03-27T01:42:29.128Z,5.11
2023-03-27T01:43:00.120Z,5.11
2023-03-27T01:43:33.672Z,5.11
2023-03-27T01:44:04.126Z,5.11
2023-03-27T01:44:44.634Z,5.11
2023-03-27T01:45:09.058Z,5.11
2023-03-27T01:45:41.024Z,5.11
2023-03-27T01:46:12.390Z,5.11
2023-03-27T01:46:46.035Z,5.00
2023-03-27T01:47:16.205Z,5.00
2023-03-27T01:47:49.514Z,5.00
2023-03-27T01:48:20.214Z,5.00
2023-03-27T01:48:52.934Z,5.00
2023-03-27T01:49:24.290Z,5.00
2023-03-27T01:49:57.254Z,5.00
2023-03-27T01:50:28.539Z,5.00
2023-03-27T01:51:01.098Z,5.00
2023-03-27T01:51:32.278Z,5.00
2023-03-27T01:52:05.229Z,5.00
2023-03-27T01:52:36.255Z,5.00
2023-03-27T01:53:12.097Z,5.00
2023-03-27T01:53:40.305Z,5.00
2023-03-27T01:54:12.993Z,4.88
2023-03-27T01:54:44.185Z,4.88
2023-03-27T01:55:17.556Z,4.88
2023-03-27T01:55:48.124Z,4.88
2023-03-27T01:56:26.163Z,4.88
2023-03-27T01:56:52.144Z,4.88
2023-03-27T01:57:24.098Z,4.88
2023-03-27T01:57:57.152Z,4.88
2023-03-27T01:58:28.252Z,4.88
2023-03-27T01:59:01.354Z,4.88
2023-03-27T01:59:32.069Z,4.88
2023-03-27T02:00:18.597Z,4.88
2023-03-27T02:00:51.432Z,4.77
2023-03-27T02:01:09.119Z,4.77
2023-03-27T02:01:40.151Z,4.88
2023-03-27T02:02:13.342Z,4.88
2023-03-27T02:02:44.187Z,4.88
2023-03-27T02:03:16.897Z,4.88
2023-03-27T02:03:48.067Z,4.77
2023-03-27T02:04:20.959Z,4.77
2023-03-27T02:04:51.971Z,4.77
2023-03-27T02:05:25.479Z,4.77
2023-03-27T02:05:56.136Z,4.77
2023-03-27T02:06:28.802Z,4.77
2023-03-27T02:07:00.102Z,4.77
2023-03-27T02:07:32.926Z,4.77
2023-03-27T02:08:04.207Z,4.77
2023-03-27T02:08:36.995Z,4.77
2023-03-27T02:09:08.224Z,4.77
2023-03-27T02:09:56.455Z,4.77
2023-03-27T02:10:28.638Z,4.77
2023-03-27T02:11:00.110Z,4.77
2023-03-27T02:11:37.058Z,4.77
2023-03-27T02:12:04.166Z,4.72
2023-03-27T02:12:36.367Z,4.72
2023-03-27T02:13:08.125Z,4.77
2023-03-27T02:13:40.245Z,4.77
2023-03-27T02:14:12.340Z,4.72
2023-03-27T02:14:44.343Z,4.72
2023-03-27T02:15:22.601Z,4.72
2023-03-27T02:15:48.488Z,4.72
2023-03-27T02:16:20.344Z,4.72
2023-03-27T02:16:52.195Z,4.72
2023-03-27T02:17:25.325Z,4.72
2023-03-27T02:17:56.199Z,4.72
2023-03-27T02:18:29.131Z,4.72
2023-03-27T02:19:00.168Z,4.72
2023-03-27T02:19:39.760Z,4.72
2023-03-27T02:20:04.488Z,4.72
2023-03-27T02:20:36.024Z,4.72
2023-03-27T02:21:08.744Z,4.72
2023-03-27T02:21:40.166Z,4.61
2023-03-27T02:22:13.119Z,4.61
2023-03-27T02:22:44.098Z,4.61
2023-03-27T02:23:17.214Z,4.61
2023-03-27T02:23:48.187Z,4.61
2023-03-27T02:24:21.805Z,4.61
2023-03-27T02:24:52.121Z,4.61
2023-03-27T02:25:25.608Z,4.61
2023-03-27T02:25:56.079Z,4.61
2023-03-27T02:26:28.927Z,4.61
2023-03-27T02:27:00.268Z,4.61
2023-03-27T02:27:36.181Z,4.61
2023-03-27T02:28:04.030Z,4.61
2023-03-27T02:28:36.906Z,4.61
2023-03-27T02:29:08.165Z,4.61
2023-03-27T02:29:44.728Z,4.61
2023-03-27T02:30:13.059Z,4.61
2023-03-27T02:30:44.254Z,4.61
2023-03-27T02:31:33.681Z,4.61
2023-03-27T02:31:48.033Z,4.61
2023-03-27T02:32:20.190Z,4.61
2023-03-27T02:32:52.209Z,4.61
2023-03-27T02:33:24.079Z,4.61
2023-03-27T02:33:56.113Z,4.61
2023-03-27T02:34:28.239Z,4.50
2023-03-27T02:35:00.035Z,4.50
2023-03-27T02:35:33.202Z,4.50
2023-03-27T02:36:04.196Z,4.50
2023-03-27T02:36:37.105Z,4.50
2023-03-27T02:37:08.060Z,4.50
2023-03-27T02:37:41.039Z,4.50
2023-03-27T02:38:12.221Z,4.50
2023-03-27T02:38:44.779Z,4.50
2023-03-27T02:39:16.077Z,4.50
2023-03-27T02:39:48.869Z,4.38
2023-03-27T02:40:20.438Z,4.38
2023-03-27T02:40:53.182Z,4.38
2023-03-27T02:41:24.352Z,4.38
2023-03-27T02:41:57.251Z,4.38
2023-03-27T02:42:28.140Z,4.38
2023-03-27T02:43:01.308Z,4.38
2023-03-27T02:43:32.297Z,4.38
2023-03-27T02:44:05.018Z,4.27
2023-03-27T02:44:36.216Z,4.27
2023-03-27T02:45:11.071Z,4.27
2023-03-27T02:45:40.554Z,4.27
2023-03-27T02:46:13.009Z,4.27
2023-03-27T02:46:44.227Z,4.27
2023-03-27T02:47:18.675Z,4.22
2023-03-27T02:47:48.559Z,4.22
2023-03-27T02:48:20.891Z,4.22
2023-03-27T02:48:52.310Z,4.22
2023-03-27T02:49:25.157Z,4.22
2023-03-27T02:49:56.074Z,4.22
2023-03-27T02:50:29.194Z,4.11
2023-03-27T02:51:00.139Z,4.11
2023-03-27T02:51:32.944Z,4.11
2023-03-27T02:52:04.113Z,4.11
2023-03-27T02:52:39.007Z,4.11
2023-03-27T02:53:08.164Z,4.11
2023-03-27T02:53:40.861Z,4.11
2023-03-27T02:54:12.025Z,4.11
2023-03-27T02:54:44.929Z,4.00
2023-03-27T02:55:16.360Z,4.00
2023-03-27T02:55:49.838Z,4.00
2023-03-27T02:56:20.139Z,4.00
2023-03-27T02:56:53.028Z,4.00
2023-03-27T02:57:25.270Z,4.00
2023-03-27T02:57:57.042Z,4.00
2023-03-27T02:58:28.196Z,4.00
2023-03-27T02:59:06.063Z,4.00
2023-03-27T02:59:32.208Z,4.00
2023-03-27T03:00:05.687Z,3.88
2023-03-27T03:00:36.145Z,3.88
2023-03-27T03:01:08.207Z,4.00
2023-03-27T03:01:40.952Z,4.00
2023-03-27T03:02:12.276Z,3.88
2023-03-27T03:02:46.165Z,3.88
2023-03-27T03:03:16.191Z,3.88
2023-03-27T03:03:51.854Z,3.88
2023-03-27T03:04:20.209Z,3.88
2023-03-27T03:04:53.610Z,3.88
2023-03-27T03:05:24.496Z,3.88
2023-03-27T03:05:57.202Z,3.88
2023-03-27T03:06:28.054Z,3.88
2023-03-27T03:07:00.977Z,3.88
2023-03-27T03:07:32.177Z,3.88
2023-03-27T03:08:06.033Z,3.88
2023-03-27T03:08:36.032Z,3.88
2023-03-27T03:09:09.006Z,3.88
2023-03-27T03:09:41.106Z,3.88
2023-03-27T03:10:13.188Z,3.88
2023-03-27T03:10:44.171Z,3.88
2023-03-27T03:11:16.966Z,3.88
2023-03-27T03:11:48.053Z,3.88
2023-03-27T03:12:20.917Z,3.88
2023-03-27T03:12:52.144Z,3.88
2023-03-27T03:13:24.987Z,3.88
2023-03-27T03:13:56.149Z,3.88
2023-03-27T03:14:28.909Z,3.88
2023-03-27T03:15:00.190Z,3.88
2023-03-27T03:15:33.956Z,3.88
2023-03-27T03:16:04.129Z,3.88
2023-03-27T03:16:37.258Z,3.88
2023-03-27T03:17:08.114Z,3.88
2023-03-27T03:17:41.006Z,3.88
2023-03-27T03:18:12.121Z,3.88
2023-03-27T03:18:44.872Z,3.88
2023-03-27T03:19:16.201Z,3.88
2023-03-27T03:19:49.107Z,3.88
2023-03-27T03:20:20.512Z,3.88
2023-03-27T03:20:53.120Z,3.88
2023-03-27T03:21:24.146Z,3.88
2023-03-27T03:21:56.883Z,3.88
2023-03-27T03:22:28.231Z,3.88
2023-03-27T03:23:10.641Z,3.88
2023-03-27T03:23:32.130Z,3.88
2023-03-27T03:24:04.181Z,3.88
2023-03-27T03:24:37.186Z,3.77
2023-03-27T03:25:08.419Z,3.77
2023-03-27T03:25:24.265Z,3.77
2023-03-27T03:25:56.490Z,3.88
2023-03-27T03:26:28.219Z,3.88
2023-03-27T03:27:00.300Z,3.77
2023-03-27T03:27:32.144Z,3.77
2023-03-27T03:28:05.053Z,3.88
2023-03-27T03:28:36.226Z,3.88
2023-03-27T03:29:10.461Z,3.88
2023-03-27T03:29:40.074Z,3.88
2023-03-27T03:30:16.629Z,3.77
2023-03-27T03:30:44.506Z,3.77
2023-03-27T03:31:17.122Z,3.77
2023-03-27T03:31:48.169Z,3.77
2023-03-27T03:32:21.971Z,3.88
2023-03-27T03:32:52.082Z,3.88
2023-03-27T03:33:24.961Z,3.77
2023-03-27T03:33:56.238Z,3.77
2023-03-27T03:34:29.132Z,3.77
2023-03-27T03:35:00.532Z,3.77
2023-03-27T03:35:39.848Z,3.77
2023-03-27T03:36:04.326Z,3.77
2023-03-27T03:36:36.102Z,3.77
2023-03-27T03:37:08.837Z,3.77
2023-03-27T03:37:40.149Z,3.77
2023-03-27T03:38:13.293Z,3.77
2023-03-27T03:38:44.203Z,3.77
2023-03-27T03:39:16.809Z,3.77
2023-03-27T03:39:48.199Z,3.77
2023-03-27T03:40:36.518Z,3.77
2023-03-27T03:41:08.268Z,3.77
2023-03-27T03:41:40.079Z,3.77
2023-03-27T03:42:22.848Z,3.77
2023-03-27T03:42:44.368Z,3.77
2023-03-27T03:43:17.071Z,3.77
2023-03-27T03:43:48.161Z,3.77
2023-03-27T03:44:21.161Z,3.77
2023-03-27T03:44:52.358Z,3.77
2023-03-27T03:45:26.002Z,3.77
2023-03-27T03:45:56.418Z,3.77
2023-03-27T03:46:44.495Z,3.77
2023-03-27T03:47:16.152Z,3.77
2023-03-27T03:47:48.249Z,3.77
2023-03-27T03:48:21.029Z,3.77
2023-03-27T03:48:52.263Z,3.77
2023-03-27T03:49:25.329Z,3.77
2023-03-27T03:49:56.312Z,3.77
2023-03-27T03:50:29.189Z,3.77
2023-03-27T03:51:00.289Z,3.77
2023-03-27T03:51:33.142Z,3.77
2023-03-27T03:52:05.092Z,3.77
2023-03-27T03:52:39.002Z,3.77
2023-03-27T03:53:08.264Z,3.77
2023-03-27T03:53:40.906Z,3.72
2023-03-27T03:54:12.165Z,3.72
2023-03-27T03:54:46.583Z,3.77
2023-03-27T03:55:16.392Z,3.77
2023-03-27T03:55:50.524Z,3.77
2023-03-27T03:56:20.245Z,3.77
2023-03-27T03:56:52.982Z,3.77
2023-03-27T03:57:24.138Z,3.77
2023-03-27T03:57:57.162Z,3.72
2023-03-27T03:58:34.722Z,3.72
2023-03-27T03:59:05.729Z,3.72
2023-03-27T03:59:32.234Z,3.72
2023-03-27T04:00:05.640Z,3.72
2023-03-27T04:00:36.099Z,3.72
2023-03-27T04:01:08.086Z,3.72
2023-03-27T04:01:40.160Z,3.72
2023-03-27T04:02:12.368Z,3.72
2023-03-27T04:02:44.244Z,3.72
2023-03-27T04:03:16.286Z,3.72
2023-03-27T04:03:48.473Z,3.72
2023-03-27T04:04:20.069Z,3.72
2023-03-27T04:04:52.991Z,3.72
2023-03-27T04:05:24.494Z,3.72
2023-03-27T04:05:57.016Z,3.72
2023-03-27T04:06:28.206Z,3.72
2023-03-27T04:07:00.878Z,3.72
2023-03-27T04:07:32.259Z,3.72
2023-03-27T04:08:05.050Z,3.72
2023-03-27T04:08:36.206Z,3.61
2023-03-27T04:09:08.973Z,3.61
2023-03-27T04:09:40.379Z,3.61
2023-03-27T04:10:13.428Z,3.61
2023-03-27T04:10:44.322Z,3.61
2023-03-27T04:11:17.024Z,3.61
2023-03-27T04:11:48.236Z,3.61
2023-03-27T04:12:21.272Z,3.61
2023-03-27T04:12:52.354Z,3.61
2023-03-27T04:13:26.013Z,3.61
2023-03-27T04:13:56.234Z,3.61
2023-03-27T04:14:29.119Z,3.61
2023-03-27T04:15:01.688Z,3.61
2023-03-27T04:15:33.248Z,3.61
2023-03-27T04:16:04.370Z,3.50
2023-03-27T04:16:37.933Z,3.50
2023-03-27T04:17:08.233Z,3.50
2023-03-27T04:17:41.153Z,3.50
2023-03-27T04:18:12.387Z,3.50
2023-03-27T04:18:50.866Z,3.50
2023-03-27T04:19:16.063Z,3.50
2023-03-27T04:19:48.088Z,3.50
2023-03-27T04:20:20.547Z,3.50
2023-03-27T04:20:52.073Z,3.50
2023-03-27T04:21:24.908Z,3.50
2023-03-27T04:21:56.214Z,3.50
2023-03-27T04:22:29.142Z,3.50
2023-03-27T04:23:00.187Z,3.50
2023-03-27T04:23:32.868Z,3.50
2023-03-27T04:24:04.162Z,3.50
2023-03-27T04:24:36.947Z,3.38
2023-03-27T04:25:08.391Z,3.38
2023-03-27T04:25:43.004Z,3.38
2023-03-27T04:26:12.177Z,3.38
2023-03-27T04:26:44.883Z,3.38
2023-03-27T04:27:16.092Z,3.38
2023-03-27T04:27:48.951Z,3.38
2023-03-27T04:28:20.011Z,3.38
2023-03-27T04:28:53.076Z,3.27
2023-03-27T04:29:24.366Z,3.27
2023-03-27T04:30:05.246Z,3.27
2023-03-27T04:30:28.402Z,3.27
2023-03-27T04:31:00.393Z,3.27
2023-03-27T04:31:32.526Z,3.27
2023-03-27T04:32:04.277Z,3.27
2023-03-27T04:32:37.095Z,3.27
2023-03-27T04:33:08.364Z,3.27
2023-03-27T04:33:41.043Z,3.27
2023-03-27T04:34:12.247Z,3.27
2023-03-27T04:35:00.712Z,3.22
2023-03-27T04:35:32.335Z,3.22
2023-03-27T04:36:05.990Z,3.22
2023-03-27T04:36:36.351Z,3.22
2023-03-27T04:37:08.257Z,3.22
2023-03-27T04:37:40.324Z,3.22
2023-03-27T04:38:12.237Z,3.22
2023-03-27T04:38:44.055Z,3.22
2023-03-27T04:39:16.164Z,3.11
2023-03-27T04:39:48.292Z,3.11
2023-03-27T04:40:20.403Z,3.11
2023-03-27T04:40:53.035Z,3.11
2023-03-27T04:41:24.237Z,3.11
2023-03-27T04:41:56.909Z,3.11
2023-03-27T04:42:28.011Z,3.11
2023-03-27T04:43:02.727Z,3.11
2023-03-27T04:43:32.328Z,3.11
2023-03-27T04:44:04.901Z,3.11
2023-03-27T04:44:36.125Z,3.22
2023-03-27T04:45:09.885Z,3.22
2023-03-27T04:45:40.178Z,3.38
2023-03-27T04:46:12.991Z,3.38
2023-03-27T04:46:44.236Z,3.38
2023-03-27T04:47:20.866Z,3.38
2023-03-27T04:47:48.425Z,3.61
2023-03-27T04:48:20.238Z,3.61
2023-03-27T04:48:52.218Z,3.61
2023-03-27T04:49:24.294Z,3.61
2023-03-27T04:49:56.239Z,3.72
2023-03-27T04:50:28.631Z,3.72
2023-03-27T04:51:00.342Z,3.72
2023-03-27T04:51:32.156Z,3.72
2023-03-27T04:52:05.239Z,3.72
2023-03-27T04:52:36.224Z,3.72
2023-03-27T04:53:08.815Z,3.72
2023-03-27T04:53:40.165Z,3.72
2023-03-27T04:54:12.954Z,3.72
2023-03-27T04:54:44.260Z,3.72
2023-03-27T04:55:17.054Z,3.72
2023-03-27T04:55:48.181Z,3.72
2023-03-27T04:56:21.066Z,3.61
2023-03-27T04:56:52.180Z,3.61
2023-03-27T04:57:24.950Z,3.61
2023-03-27T04:57:56.242Z,3.61
2023-03-27T04:58:28.953Z,3.50
2023-03-27T04:59:00.043Z,3.50
2023-03-27T04:59:33.051Z,3.50
2023-03-27T05:00:05.615Z,3.50
2023-03-27T05:00:38.402Z,3.38
2023-03-27T05:01:08.242Z,3.38
2023-03-27T05:01:44.006Z,3.38
2023-03-27T05:02:12.277Z,3.38
2023-03-27T05:02:45.145Z,3.27
2023-03-27T05:03:16.278Z,3.27
2023-03-27T05:03:49.285Z,3.27
2023-03-27T05:04:20.279Z,3.27
2023-03-27T05:04:54.512Z,3.27
2023-03-27T05:05:24.433Z,3.27
2023-03-27T05:05:57.288Z,3.22
2023-03-27T05:06:28.092Z,3.22
2023-03-27T05:07:01.165Z,3.22
2023-03-27T05:07:32.227Z,3.22
2023-03-27T05:08:04.980Z,3.22
2023-03-27T05:08:36.175Z,3.22
2023-03-27T05:09:09.178Z,3.11
2023-03-27T05:09:40.350Z,3.11
2023-03-27T05:10:13.110Z,3.22
2023-03-27T05:10:44.228Z,3.22
2023-03-27T05:11:17.028Z,3.11
2023-03-27T05:11:48.052Z,3.11
2023-03-27T05:12:21.166Z,3.11
2023-03-27T05:12:52.229Z,3.11
2023-03-27T05:13:25.158Z,3.11
2023-03-27T05:13:56.129Z,3.11
2023-03-27T05:14:29.984Z,3.11
2023-03-27T05:15:00.142Z,3.11
2023-03-27T05:15:34.191Z,3.11
2023-03-27T05:16:04.388Z,3.11
2023-03-27T05:16:37.410Z,3.11
2023-03-27T05:17:08.546Z,3.11
2023-03-27T05:17:42.296Z,3.11
2023-03-27T05:18:12.525Z,3.11
2023-03-27T05:18:45.238Z,3.11
2023-03-27T05:19:16.343Z,3.11
2023-03-27T05:19:49.977Z,3.11
2023-03-27T05:20:20.704Z,3.11
2023-03-27T05:20:53.080Z,3.00
2023-03-27T05:21:24.451Z,3.00
2023-03-27T05:21:57.547Z,3.00
2023-03-27T05:22:28.480Z,3.00
2023-03-27T05:23:01.530Z,3.00
2023-03-27T05:23:32.528Z,3.00
2023-03-27T05:24:05.424Z,3.00
2023-03-27T05:24:36.533Z,3.00
2023-03-27T05:25:09.685Z,3.00
2023-03-27T05:25:40.659Z,3.00
2023-03-27T05:26:14.914Z,3.00
2023-03-27T05:26:44.490Z,3.00
2023-03-27T05:27:17.465Z,3.00
2023-03-27T05:27:48.603Z,3.00
2023-03-27T05:28:21.484Z,3.11
2023-03-27T05:28:52.569Z,3.11
2023-03-27T05:29:25.383Z,3.11
2023-03-27T05:29:56.616Z,3.11
2023-03-27T05:30:30.770Z,3.11
2023-03-27T05:31:00.983Z,3.11
2023-03-27T05:31:33.630Z,3.11
2023-03-27T05:32:04.354Z,3.11
2023-03-27T05:32:38.183Z,3.11
2023-03-27T05:33:08.539Z,3.11
2023-03-27T05:33:42.372Z,3.11
2023-03-27T05:34:12.325Z,3.11
2023-03-27T05:34:45.351Z,3.11
2023-03-27T05:35:16.572Z,3.11
2023-03-27T05:35:49.155Z,3.11
2023-03-27T05:36:20.495Z,3.11
2023-03-27T05:36:53.143Z,3.11
2023-03-27T05:37:27.006Z,3.11
2023-03-27T05:37:57.283Z,3.11
2023-03-27T05:38:28.477Z,3.11
2023-03-27T05:39:01.363Z,3.11
2023-03-27T05:39:32.360Z,3.11
2023-03-27T05:40:05.411Z,3.22
2023-03-27T05:40:36.520Z,3.22
2023-03-27T05:41:09.903Z,3.22
2023-03-27T05:41:40.454Z,3.22
2023-03-27T05:42:13.528Z,3.22
2023-03-27T05:42:44.504Z,3.22
2023-03-27T05:43:18.266Z,3.22
2023-03-27T05:43:50.161Z,3.22
2023-03-27T05:44:21.435Z,3.22
2023-03-27T05:44:52.395Z,3.22
2023-03-27T05:45:31.576Z,3.22
2023-03-27T05:45:56.651Z,3.22
2023-03-27T05:46:28.452Z,3.22
2023-03-27T05:47:00.696Z,3.22
2023-03-27T05:47:32.526Z,3.22
2023-03-27T05:48:04.586Z,3.22
2023-03-27T05:48:36.337Z,3.22
2023-03-27T05:49:08.335Z,3.22
2023-03-27T05:49:40.530Z,3.22
2023-03-27T05:50:12.609Z,3.22
2023-03-27T05:50:45.312Z,3.22
2023-03-27T05:51:16.482Z,3.22
2023-03-27T05:51:49.394Z,3.22
2023-03-27T05:52:20.393Z,3.22
2023-03-27T05:52:53.146Z,3.22
2023-03-27T05:53:27.975Z,3.22
2023-03-27T05:53:57.467Z,3.22
2023-03-27T05:54:28.388Z,3.22
2023-03-27T05:55:01.578Z,3.22
2023-03-27T05:55:32.497Z,3.22
2023-03-27T05:56:05.186Z,3.22
2023-03-27T05:56:36.379Z,3.22
2023-03-27T05:57:09.564Z,3.22
2023-03-27T05:57:40.373Z,3.22
2023-03-27T05:58:14.302Z,3.22
2023-03-27T05:58:44.414Z,3.22
2023-03-27T05:59:17.459Z,3.22
2023-03-27T05:59:48.357Z,3.22
2023-03-27T06:00:22.571Z,3.22
2023-03-27T06:00:52.441Z,3.22
2023-03-27T06:01:25.194Z,3.22
2023-03-27T06:01:56.517Z,3.22
2023-03-27T06:02:30.421Z,3.22
2023-03-27T06:03:00.582Z,3.22
2023-03-27T06:03:33.604Z,3.22
2023-03-27T06:04:04.543Z,3.22
2023-03-27T06:04:37.426Z,3.22
2023-03-27T06:05:08.546Z,3.22
2023-03-27T06:05:41.131Z,3.22
2023-03-27T06:06:12.475Z,3.22
2023-03-27T06:06:51.057Z,3.22
2023-03-27T06:07:16.356Z,3.22
2023-03-27T06:07:48.489Z,3.22
2023-03-27T06:08:21.145Z,3.22
2023-03-27T06:08:52.562Z,3.22
2023-03-27T06:09:25.236Z,3.22
2023-03-27T06:09:56.627Z,3.22
2023-03-27T06:10:29.782Z,3.22
2023-03-27T06:11:00.431Z,3.22
2023-03-27T06:11:33.207Z,3.22
2023-03-27T06:12:04.519Z,3.22
2023-03-27T06:12:38.205Z,3.22
2023-03-27T06:13:08.340Z,3.22
2023-03-27T06:13:41.194Z,3.22
2023-03-27T06:14:12.509Z,3.22
2023-03-27T06:14:45.420Z,3.22
2023-03-27T06:15:17.241Z,3.22
2023-03-27T06:15:49.514Z,3.22
2023-03-27T06:16:20.418Z,3.27
2023-03-27T06:16:53.311Z,3.27
2023-03-27T06:17:24.578Z,3.22
2023-03-27T06:17:57.470Z,3.22
2023-03-27T06:18:28.389Z,3.22
2023-03-27T06:19:04.100Z,3.22
2023-03-27T06:19:32.539Z,3.27
2023-03-27T06:20:05.533Z,3.27
2023-03-27T06:20:36.415Z,3.27
2023-03-27T06:21:09.473Z,3.27
2023-03-27T06:21:41.077Z,3.22
2023-03-27T06:22:13.308Z,3.22
2023-03-27T06:22:44.785Z,3.27
2023-03-27T06:23:17.748Z,3.27
2023-03-27T06:23:48.301Z,3.22
2023-03-27T06:24:21.208Z,3.22
2023-03-27T06:24:53.597Z,3.27
2023-03-27T06:25:26.993Z,3.27
2023-03-27T06:25:57.488Z,3.22
2023-03-27T06:26:30.120Z,3.22
2023-03-27T06:27:00.517Z,3.27
2023-03-27T06:27:33.479Z,3.27
2023-03-27T06:28:04.523Z,3.22
2023-03-27T06:28:38.178Z,3.22
2023-03-27T06:29:08.792Z,3.27
2023-03-27T06:29:41.329Z,3.27
2023-03-27T06:30:13.740Z,3.22
2023-03-27T06:30:46.314Z,3.22
2023-03-27T06:31:16.362Z,3.27
2023-03-27T06:31:49.245Z,3.27
2023-03-27T06:32:20.442Z,3.27
2023-03-27T06:32:53.471Z,3.27
2023-03-27T06:33:24.422Z,3.27
2023-03-27T06:33:57.151Z,3.27
2023-03-27T06:34:28.482Z,3.27
2023-03-27T06:35:01.695Z,3.27
2023-03-27T06:35:32.517Z,3.27
2023-03-27T06:36:05.408Z,3.27
2023-03-27T06:36:36.181Z,3.27
2023-03-27T06:37:09.436Z,3.27
2023-03-27T06:37:40.631Z,3.27
2023-03-27T06:38:16.527Z,3.27
2023-03-27T06:38:44.429Z,3.27
2023-03-27T06:39:17.354Z,3.27
2023-03-27T06:39:48.549Z,3.27
2023-03-27T06:40:22.991Z,3.27
2023-03-27T06:40:52.679Z,3.22
2023-03-27T06:41:25.181Z,3.22
2023-03-27T06:41:56.499Z,3.22
2023-03-27T06:42:29.328Z,3.22
2023-03-27T06:43:00.504Z,3.22
2023-03-27T06:43:33.448Z,3.22
2023-03-27T06:44:04.474Z,3.22
2023-03-27T06:44:38.181Z,3.22
2023-03-27T06:45:09.486Z,3.22
2023-03-27T06:45:41.637Z,3.22
2023-03-27T06:46:12.506Z,3.22
2023-03-27T06:46:46.186Z,3.22
2023-03-27T06:47:16.709Z,3.22
2023-03-27T06:48:14.581Z,3.22
2023-03-27T06:48:36.570Z,3.22
2023-03-27T06:49:08.470Z,3.22
2023-03-27T06:49:25.397Z,3.22
2023-03-27T06:49:56.382Z,3.22
2023-03-27T06:50:30.627Z,3.22
2023-03-27T06:51:00.552Z,3.22
2023-03-27T06:51:33.143Z,3.22
2023-03-27T06:52:04.772Z,3.22
2023-03-27T06:52:39.485Z,3.22
2023-03-27T06:53:19.615Z,3.22
2023-03-27T06:53:41.473Z,3.22
2023-03-27T06:54:12.370Z,3.22
2023-03-27T06:54:45.359Z,3.22
2023-03-27T06:55:16.663Z,3.22
2023-03-27T06:55:51.716Z,3.22
2023-03-27T06:56:21.055Z,3.22
2023-03-27T06:56:54.110Z,3.22
2023-03-27T06:57:24.817Z,3.22
2023-03-27T06:57:57.391Z,3.22
2023-03-27T06:58:28.604Z,3.22
2023-03-27T06:59:01.639Z,3.22
2023-03-27T06:59:32.540Z,3.22
2023-03-27T07:00:09.646Z,3.22
2023-03-27T07:00:36.585Z,3.22
2023-03-27T07:01:09.529Z,3.22
2023-03-27T07:01:40.541Z,3.22
2023-03-27T07:02:13.267Z,3.27
2023-03-27T07:02:44.430Z,3.27
2023-03-27T07:03:17.593Z,3.27
2023-03-27T07:03:48.591Z,3.27
2023-03-27T07:04:24.131Z,3.27
2023-03-27T07:05:01.937Z,3.27
2023-03-27T07:05:25.615Z,3.27
2023-03-27T07:05:56.582Z,3.27
2023-03-27T07:06:29.192Z,3.38